Latest Weather Observations for Rottnest Island

IDW60801

Issued at 1:13 pm WST Monday 30 March 2020 (issued every 10 minutes, with the page automatically refreshed every 10 minutes)

About weather observations | Map of weather stations | Latest weather observations for WA | Other Formats
Station Details ID: 009193 Name: ROTTNEST ISLAND Lat: -32.01 Lon: 115.50 Height: 43.1 m
Data from the previous 72 hours. | See also: Recent months at Rottnest Island
Date/Time
WST
Temp
°C
App
Temp
°C
Dew
Point
°C
Rel
Hum
%
Delta-T
°C
Wind Press
QNH
hPa
Press
MSL
hPa
Rain since
9am
mm
Dir  Spd
km/h
Gust
km/h
Spd
kts
Gust
kts
30/01:00pm 21.5 18.0 10.3 49 6.1 S 19 26 10 14 1018.0 1017.8 0.0
30/12:30pm 20.8 17.2 10.0 50 5.8 S 19 24 10 13 1018.4 1018.2 0.0
30/12:00pm 21.6 18.6 10.7 50 6.0 SSE 17 22 9 12 1018.5 1018.3 0.0
30/11:30am 20.7 17.7 9.3 48 6.1 SSE 15 20 8 11 1019.1 1018.9 0.0
30/11:00am 20.2 16.8 9.2 49 5.8 SE 17 24 9 13 1019.3 1019.1 0.0
30/10:30am 20.4 17.4 10.5 53 5.4 ESE 17 22 9 12 1019.5 1019.3 0.0
30/10:00am 20.0 17.2 10.1 53 5.3 ESE 15 22 8 12 1020.0 1019.8 0.0
30/09:30am 19.3 16.2 10.3 56 4.8 E 17 24 9 13 1020.1 1019.9 0.0
30/09:00am 19.3 16.3 10.6 57 4.7 E 17 26 9 14 1019.9 1019.7 0.0
30/08:30am 18.8 16.5 11.6 63 4.0 E 15 20 8 11 1019.7 1019.5 0.0
30/08:00am 18.7 15.9 11.3 62 4.0 E 17 20 9 11 1019.5 1019.3 0.0
30/07:30am 18.1 15.3 11.4 65 3.7 E 17 20 9 11 1019.6 1019.4 0.0
30/07:00am 17.2 14.8 11.5 69 3.1 E 15 19 8 10 1019.3 1019.1 0.0
30/06:30am 16.6 14.1 11.1 70 3.0 E 15 17 8 9 1019.0 1018.8 0.0
30/06:00am 16.6 14.4 10.9 69 3.0 ESE 13 17 7 9 1019.1 1018.9 0.0
30/05:30am 16.9 15.3 11.4 70 3.0 ESE 11 15 6 8 1019.0 1018.8 0.0
30/05:00am 16.6 14.7 11.7 73 2.7 ESE 13 15 7 8 1018.7 1018.5 0.0
30/04:30am 17.0 15.3 12.3 74 2.6 ESE 13 17 7 9 1018.7 1018.5 0.0
30/04:00am 17.1 15.2 11.8 71 2.9 ESE 13 17 7 9 1018.4 1018.2 0.0
30/03:30am 17.0 15.1 11.9 72 2.8 ESE 13 19 7 10 1018.4 1018.2 0.0
30/03:00am 18.1 14.8 11.7 66 3.5 SSE 20 24 11 13 1018.4 1018.2 0.0
30/02:30am 18.5 15.8 11.6 64 3.8 SSE 17 22 9 12 1018.3 1018.1 0.0
30/02:00am 18.6 14.5 8.8 53 5.1 S 20 26 11 14 1018.6 1018.4 0.0
30/01:30am 19.0 13.9 9.2 53 5.2 S 26 32 14 17 1018.6 1018.4 0.0
30/01:00am 19.2 15.6 9.9 55 5.0 S 19 24 10 13 1018.5 1018.3 0.0
30/12:30am 18.9 15.6 9.7 55 4.9 S 17 20 9 11 1018.8 1018.6 0.0
30/12:00am 18.4 14.6 9.2 55 4.8 S 19 28 10 15 1018.8 1018.6 0.0
 
Date/Time
WST
Temp
°C
App
Temp
°C
Dew
Point
°C
Rel
Hum
%
Delta-T
°C
Wind Press
QNH
hPa
Press
MSL
hPa
Rain since
9am
mm
Dir  Spd
km/h
Gust
km/h
Spd
kts
Gust
kts
29/11:30pm 18.6 14.2 8.8 53 5.1 SSW 22 28 12 15 1019.2 1019.0 0.0
29/11:00pm 19.1 15.1 10.6 58 4.6 S 22 28 12 15 1019.3 1019.1 0.0
29/10:30pm 18.9 14.3 11.0 60 4.3 S 26 33 14 18 1019.4 1019.2 0.0
29/10:00pm 19.3 15.2 11.3 60 4.4 S 24 30 13 16 1019.5 1019.3 0.0
29/09:30pm 19.3 15.7 11.8 62 4.2 S 22 28 12 15 1019.6 1019.4 0.0
29/09:00pm 18.8 15.0 11.1 61 4.2 S 22 28 12 15 1019.6 1019.4 0.0
29/08:30pm 19.0 15.0 10.6 58 4.5 S 22 28 12 15 1019.5 1019.3 0.0
29/08:00pm 19.2 15.1 11.3 60 4.3 S 24 30 13 16 1019.2 1019.0 0.0
29/07:30pm 19.2 15.7 11.0 59 4.5 S 20 26 11 14 1019.1 1018.9 0.0
29/07:00pm 19.3 15.2 11.3 60 4.4 S 24 30 13 16 1018.8 1018.6 0.0
29/06:30pm 19.2 15.7 11.0 59 4.5 SSW 20 24 11 13 1019.0 1018.8 0.0
29/06:00pm 19.4 15.3 11.4 60 4.4 S 24 30 13 16 1018.6 1018.4 0.0
29/05:30pm 19.5 16.3 11.8 61 4.3 S 20 26 11 14 1018.5 1018.3 0.0
29/05:00pm 19.7 16.1 12.0 61 4.3 S 22 30 12 16 1018.3 1018.1 0.0
29/04:30pm 19.8 17.2 12.1 61 4.3 SSW 17 24 9 13 1018.7 1018.5 0.0
29/04:00pm 20.6 18.1 12.3 59 4.7 SSW 17 22 9 12 1018.7 1018.5 0.0
29/03:30pm 19.8 17.8 12.8 64 4.0 SSW 15 20 8 11 1018.7 1018.5 0.0
29/03:00pm 20.0 17.0 11.8 59 4.5 S 19 24 10 13 1018.8 1018.6 0.0
29/02:30pm 19.9 18.0 11.9 60 4.5 SSE 13 17 7 9 1018.6 1018.4 0.0
29/02:00pm 19.9 18.4 11.9 60 4.4 SSE 11 17 6 9 1018.6 1018.4 0.0
29/01:30pm 19.7 18.0 12.5 63 4.0 SSE 13 15 7 8 1018.8 1018.6 0.0
29/01:00pm 18.9 16.6 11.9 64 3.9 SSE 15 19 8 10 1019.2 1019.0 0.0
29/12:30pm 19.4 17.5 11.9 62 4.2 SE 13 17 7 9 1019.4 1019.2 0.0
29/12:00pm 19.5 18.1 12.3 63 4.0 SE 11 17 6 9 1019.5 1019.3 0.0
29/11:30am 19.5 18.0 12.0 62 4.2 ENE 11 19 6 10 1019.7 1019.5 0.0
29/11:00am 19.0 17.3 12.5 66 3.6 ENE 13 20 7 11 1019.9 1019.7 0.0
29/10:30am 18.6 17.4 12.8 69 3.3 E 11 15 6 8 1020.1 1019.9 0.0
29/10:00am 17.9 16.6 12.4 70 3.0 ESE 11 17 6 9 1020.0 1019.8 0.0
29/09:30am 18.2 15.5 11.7 66 3.6 E 17 22 9 12 1019.9 1019.7 0.0
29/09:00am 18.4 17.4 12.2 67 3.4 ENE 9 15 5 8 1019.7 1019.5 0.2
29/08:30am 17.8 16.3 12.0 69 3.2 ESE 11 15 6 8 1019.5 1019.3 0.2
29/08:00am 17.4 15.6 12.1 71 2.9 ESE 13 19 7 10 1019.3 1019.1 0.2
29/07:30am 17.5 16.5 12.2 71 2.9 ENE 9 11 5 6 1018.9 1018.7 0.2
29/07:00am 16.8 15.7 11.9 73 2.7 ESE 9 13 5 7 1018.5 1018.3 0.2
29/06:30am 17.2 16.2 12.3 73 2.7 ESE 9 11 5 6 1018.3 1018.1 0.2
29/06:00am 17.3 16.1 12.8 75 2.5 ESE 11 15 6 8 1017.9 1017.7 0.2
29/05:30am 17.7 16.4 13.8 78 2.2 SE 13 20 7 11 1017.3 1017.1 0.2
29/05:00am 17.3 15.6 13.6 79 2.1 SSE 15 20 8 11 1016.9 1016.7 0.2
29/04:30am 17.7 15.2 13.6 77 2.3 SSE 19 22 10 12 1016.7 1016.5 0.2
29/04:00am 17.5 14.8 13.6 78 2.2 SSE 20 30 11 16 1016.8 1016.6 0.2
29/03:30am 17.9 14.8 14.6 81 1.9 S 24 30 13 16 1016.6 1016.4 0.2
29/03:00am 17.9 14.0 14.4 80 2.0 S 28 35 15 19 1016.7 1016.5 0.2
29/02:30am 18.0 14.2 13.7 76 2.4 S 26 35 14 19 1016.8 1016.6 0.2
29/02:00am 18.4 14.6 13.5 73 2.8 S 26 32 14 17 1017.3 1017.1 0.2
29/01:30am 18.1 13.6 13.8 76 2.5 S 30 43 16 23 1017.3 1017.1 0.2
29/01:00am 18.7 15.5 13.1 70 3.2 S 22 28 12 15 1017.5 1017.3 0.2
29/12:30am 18.3 14.9 13.6 74 2.7 S 24 32 13 17 1017.4 1017.2 0.2
29/12:00am 18.7 14.2 12.7 68 3.4 SSW 28 37 15 20 1017.5 1017.3 0.2
 
Date/Time
WST
Temp
°C
App
Temp
°C
Dew
Point
°C
Rel
Hum
%
Delta-T
°C
Wind Press
QNH
hPa
Press
MSL
hPa
Rain since
9am
mm
Dir  Spd
km/h
Gust
km/h
Spd
kts
Gust
kts
28/11:30pm 19.0 15.3 10.0 56 4.8 SSW 20 26 11 14 1017.9 1017.7 0.2
28/11:00pm 19.0 14.4 9.5 54 5.0 SW 24 30 13 16 1018.0 1017.8 0.2
28/10:30pm 19.0 13.7 9.8 55 4.9 SSW 28 35 15 19 1018.0 1017.8 0.2
28/10:00pm 19.0 13.8 10.3 57 4.7 SSW 28 35 15 19 1018.1 1017.9 0.2
28/09:30pm 18.9 15.5 11.2 61 4.2 SW 20 28 11 15 1018.3 1018.1 0.2
28/09:00pm 18.7 15.0 10.0 57 4.6 SW 20 26 11 14 1018.0 1017.8 0.2
28/08:30pm 18.8 14.3 10.1 57 4.7 SW 24 30 13 16 1018.3 1018.1 0.2
28/08:00pm 18.9 14.5 10.5 58 4.5 SW 24 30 13 16 1018.0 1017.8 0.2
28/07:30pm 19.1 14.4 10.6 58 4.6 SSW 26 32 14 17 1017.4 1017.2 0.2
28/07:00pm 19.0 14.3 10.8 59 4.4 SSW 26 32 14 17 1017.3 1017.1 0.2
28/06:30pm 19.2 14.4 11.5 61 4.2 SSW 28 35 15 19 1017.1 1016.9 0.2
28/06:00pm 19.3 14.7 12.3 64 3.9 SSW 28 39 15 21 1016.8 1016.6 0.2
28/05:30pm 19.4 14.4 12.2 63 4.0 SSW 30 37 16 20 1016.4 1016.2 0.2
28/05:00pm 19.7 14.4 12.5 63 4.0 SSW 32 41 17 22 1016.2 1016.0 0.2
28/04:30pm 19.9 14.5 12.2 61 4.3 SSW 32 39 17 21 1016.2 1016.0 0.2
28/04:00pm 20.0 15.1 12.7 63 4.1 SSW 30 39 16 21 1016.2 1016.0 0.2
28/03:30pm 20.0 15.2 13.0 64 4.0 SSW 30 35 16 19 1016.4 1016.2 0.2
28/03:00pm 20.6 16.9 13.8 65 3.9 SSW 26 32 14 17 1016.2 1016.0 0.2
28/02:30pm 20.7 16.1 12.4 59 4.7 SSW 28 39 15 21 1016.5 1016.3 0.2
28/02:00pm 22.0 17.7 13.1 57 5.1 SSW 28 35 15 19 1016.3 1016.1 0.2
28/01:30pm 21.8 17.4 14.2 62 4.4 SSW 30 35 16 19 1016.4 1016.2 0.2
28/01:00pm 21.4 16.8 13.6 61 4.5 SW 30 39 16 21 1016.6 1016.4 0.2
28/12:30pm 21.1 16.4 12.0 56 5.1 SW 28 33 15 18 1016.9 1016.7 0.2
28/12:00pm 21.5 16.8 12.1 55 5.3 SW 28 33 15 18 1017.1 1016.9 0.2
28/11:30am 21.4 17.0 12.8 58 4.9 SW 28 35 15 19 1017.3 1017.1 0.2
28/11:00am 21.4 17.3 12.8 58 4.9 SW 26 33 14 18 1017.2 1017.0 0.2
28/10:30am 21.7 17.1 12.3 55 5.3 SW 28 37 15 20 1017.4 1017.2 0.2
28/10:00am 20.8 16.0 11.7 56 5.1 SW 28 37 15 20 1017.5 1017.3 0.0
28/09:30am 20.5 15.8 12.0 58 4.8 SW 28 35 15 19 1017.2 1017.0 0.0
28/09:00am 20.2 15.2 10.9 55 5.1 SW 28 35 15 19 1016.8 1016.6 1.6
28/08:30am 20.1 14.5 10.2 53 5.3 SW 30 37 16 20 1016.7 1016.5 1.6
28/08:00am 20.0 14.5 11.8 59 4.6 SW 32 39 17 21 1016.2 1016.0 1.6
28/07:30am 19.5 13.9 12.0 62 4.2 SW 33 43 18 23 1015.9 1015.7 1.6
28/07:00am 19.3 14.1 12.8 66 3.7 SW 32 41 17 22 1015.7 1015.5 1.6
28/06:30am 19.4 14.0 12.7 65 3.8 SW 33 44 18 24 1015.5 1015.3 1.6
28/06:00am 19.0 13.7 13.0 68 3.4 SW 33 43 18 23 1015.4 1015.2 1.6
28/05:30am 19.3 13.6 14.1 72 3.0 SW 37 48 20 26 1014.7 1014.5 1.6
28/05:00am 19.6 14.1 14.6 73 2.9 SW 37 44 20 24 1014.4 1014.2 1.6
28/04:30am 19.6 15.2 15.7 78 2.3 SW 33 43 18 23 1013.9 1013.7 1.6
28/04:00am 19.7 14.3 15.1 75 2.7 SW 37 48 20 26 1014.1 1013.9 1.6
28/03:30am 19.5 14.6 15.4 77 2.4 SW 35 46 19 25 1013.8 1013.6 1.6
28/03:00am 19.8 14.7 16.8 83 1.8 SW 39 50 21 27 1013.7 1013.5 1.6
28/02:30am 20.0 15.9 17.4 85 1.6 SW 35 46 19 25 1013.2 1013.0 1.6
28/02:00am 20.1 16.0 19.1 94 0.6 SW 39 48 21 26 1013.2 1013.0 1.6
28/01:30am 20.4 18.0 20.4 100 0.0 WSW 33 44 18 24 1013.3 1013.1 1.6
28/01:00am 20.5 18.4 20.5 100 0.0 WSW 32 41 17 22 1012.9 1012.7 1.6
28/12:30am 20.3 19.2 20.3 100 0.0 W 26 41 14 22 1013.0 1012.8 1.6
28/12:00am 20.3 20.0 20.3 100 0.0 W 22 30 12 16 1013.0 1012.8 1.0
 
Date/Time
WST
Temp
°C
App
Temp
°C
Dew
Point
°C
Rel
Hum
%
Delta-T
°C
Wind Press
QNH
hPa
Press
MSL
hPa
Rain since
9am
mm
Dir  Spd
km/h
Gust
km/h
Spd
kts
Gust
kts
27/11:30pm 19.8 17.2 19.8 100 0.0 WSW 33 48 18 26 1013.2 1013.0 0.8
27/11:22pm 20.5 18.2 20.5 100 0.0 WNW 33 48 18 26 1013.4 1013.2 0.2
27/11:00pm 22.5 21.0 21.0 91 1.0 NW 30 39 16 21 1012.9 1012.7 0.0
27/10:30pm 22.3 20.1 20.4 89 1.2 NW 32 39 17 21 1013.0 1012.8 0.0
27/10:00pm 22.2 20.5 20.5 90 1.1 NW 30 37 16 20 1013.0 1012.8 0.0
27/09:30pm 22.0 21.3 20.3 90 1.1 NW 24 33 13 18 1013.3 1013.1 0.0
27/09:00pm 22.2 20.3 20.1 88 1.4 WNW 30 37 16 20 1013.5 1013.3 0.0
27/08:30pm 22.1 20.6 20.2 89 1.2 WNW 28 37 15 20 1013.3 1013.1 0.0
27/08:00pm 21.9 20.8 20.2 90 1.1 WNW 26 33 14 18 1013.0 1012.8 0.0
27/07:30pm 22.0 21.0 19.7 87 1.5 WNW 24 35 13 19 1012.7 1012.5 0.0
27/07:00pm 22.3 20.8 20.2 88 1.4 WNW 28 39 15 21 1012.5 1012.3 0.0
27/06:30pm 22.5 21.3 20.8 90 1.1 W 28 37 15 20 1012.3 1012.1 0.0
27/06:00pm 22.8 22.1 21.1 90 1.1 WNW 26 33 14 18 1012.1 1011.9 0.0
27/05:30pm 23.3 23.3 21.0 87 1.5 W 22 28 12 15 1011.7 1011.5 0.0
27/05:00pm 23.1 23.9 22.4 96 0.5 W 22 32 12 17 1012.1 1011.9 0.0
27/04:30pm 23.7 22.8 21.4 87 1.5 NW 28 33 15 18 1011.8 1011.6 0.0
27/04:00pm 24.9 23.2 20.6 77 2.8 NW 30 37 16 20 1011.9 1011.7 0.0
27/03:30pm 25.0 23.9 21.1 79 2.6 NW 28 35 15 19 1012.0 1011.8 0.0
27/03:00pm 25.8 25.4 22.3 81 2.4 NW 28 33 15 18 1011.8 1011.6 0.0
27/02:30pm 25.2 24.8 22.3 84 1.9 NW 28 33 15 18 1011.9 1011.7 0.0
27/02:00pm 25.2 24.0 20.9 77 2.8 NW 28 35 15 19 1011.8 1011.6 0.0
27/01:30pm 25.8 23.9 21.0 75 3.2 NW 32 37 17 20 1011.9 1011.7 0.0

Other formats

Comma delimited format used in spreadsheet applications
http://www.bom.gov.au/fwo/IDW60801/IDW60801.94602.axf

JavaScript Object Notation format (JSON) in row-major order
http://www.bom.gov.au/fwo/IDW60801/IDW60801.94602.json

Data quality

Most of these data are generated automatically and are frequently updated. Quality checks on data are not normally performed. It is possible for incorrect values to appear. Refer to information at About Latest Weather Observations and please check the disclaimer before using these data.